sensor_id;sensor_type;location;lat;lon;timestamp;temperature;humidity
35043;DHT22;21230;51.170;17.024;2022-09-24T00:01:23;7.40;99.90
35043;DHT22;21230;51.170;17.024;2022-09-24T00:03:57;7.40;99.90
35043;DHT22;21230;51.170;17.024;2022-09-24T00:06:36;7.50;99.90
35043;DHT22;21230;51.170;17.024;2022-09-24T00:09:06;7.50;99.90
35043;DHT22;21230;51.170;17.024;2022-09-24T00:11:38;7.50;99.90
35043;DHT22;21230;51.170;17.024;2022-09-24T00:14:07;7.40;99.90
35043;DHT22;21230;51.170;17.024;2022-09-24T00:16:39;7.40;99.90
35043;DHT22;21230;51.170;17.024;2022-09-24T00:19:05;7.40;99.90
35043;DHT22;21230;51.170;17.024;2022-09-24T00:21:37;7.50;99.90
35043;DHT22;21230;51.170;17.024;2022-09-24T00:24:12;7.50;99.90
35043;DHT22;21230;51.170;17.024;2022-09-24T00:27:02;7.50;99.90
35043;DHT22;21230;51.170;17.024;2022-09-24T00:29:29;7.50;99.90
35043;DHT22;21230;51.170;17.024;2022-09-24T00:31:58;7.40;99.90
35043;DHT22;21230;51.170;17.024;2022-09-24T00:34:24;7.30;99.90
35043;DHT22;21230;51.170;17.024;2022-09-24T00:36:58;7.20;99.90
35043;DHT22;21230;51.170;17.024;2022-09-24T00:39:32;7.20;99.90
35043;DHT22;21230;51.170;17.024;2022-09-24T00:42:11;7.20;99.90
35043;DHT22;21230;51.170;17.024;2022-09-24T00:50:45;7.10;99.90
35043;DHT22;21230;51.170;17.024;2022-09-24T00:53:21;7.10;99.90
35043;DHT22;21230;51.170;17.024;2022-09-24T00:56:38;7.10;99.90
35043;DHT22;21230;51.170;17.024;2022-09-24T00:59:17;7.10;99.90
35043;DHT22;21230;51.170;17.024;2022-09-24T01:01:50;7.00;99.90
35043;DHT22;21230;51.170;17.024;2022-09-24T01:04:35;7.00;99.90
35043;DHT22;21230;51.170;17.024;2022-09-24T01:07:06;7.00;99.90
35043;DHT22;21230;51.170;17.024;2022-09-24T01:09:55;6.90;99.90
35043;DHT22;21230;51.170;17.024;2022-09-24T01:40:06;6.90;99.90
35043;DHT22;21230;51.170;17.024;2022-09-24T01:43:02;6.90;99.90
35043;DHT22;21230;51.170;17.024;2022-09-24T01:45:59;7.00;99.90
35043;DHT22;21230;51.170;17.024;2022-09-24T01:48:26;7.00;99.90
35043;DHT22;21230;51.170;17.024;2022-09-24T01:51:10;7.00;99.90
35043;DHT22;21230;51.170;17.024;2022-09-24T01:53:58;7.00;99.90
35043;DHT22;21230;51.170;17.024;2022-09-24T01:56:50;7.00;99.90
35043;DHT22;21230;51.170;17.024;2022-09-24T01:59:58;7.00;99.90
35043;DHT22;21230;51.170;17.024;2022-09-24T02:07:50;7.00;99.90
35043;DHT22;21230;51.170;17.024;2022-09-24T02:10:21;7.00;99.90
35043;DHT22;21230;51.170;17.024;2022-09-24T02:13:04;7.10;99.90
35043;DHT22;21230;51.170;17.024;2022-09-24T02:15:48;7.10;99.90
35043;DHT22;21230;51.170;17.024;2022-09-24T02:18:28;7.10;99.90
35043;DHT22;21230;51.170;17.024;2022-09-24T02:20:59;7.10;99.90
35043;DHT22;21230;51.170;17.024;2022-09-24T02:23:30;7.20;99.90
35043;DHT22;21230;51.170;17.024;2022-09-24T02:26:01;7.20;99.90
35043;DHT22;21230;51.170;17.024;2022-09-24T02:28:32;7.20;99.90
35043;DHT22;21230;51.170;17.024;2022-09-24T02:34:26;7.10;99.90
35043;DHT22;21230;51.170;17.024;2022-09-24T02:37:14;7.10;99.90
35043;DHT22;21230;51.170;17.024;2022-09-24T02:39:53;7.10;99.90
35043;DHT22;21230;51.170;17.024;2022-09-24T02:42:46;7.00;99.90
35043;DHT22;21230;51.170;17.024;2022-09-24T02:45:40;7.00;99.90
35043;DHT22;21230;51.170;17.024;2022-09-24T02:58:57;7.10;99.90
35043;DHT22;21230;51.170;17.024;2022-09-24T03:08:13;7.10;99.90
35043;DHT22;21230;51.170;17.024;2022-09-24T03:10:59;7.10;99.90
35043;DHT22;21230;51.170;17.024;2022-09-24T03:17:01;7.20;99.90
35043;DHT22;21230;51.170;17.024;2022-09-24T03:19:54;7.10;99.90
35043;DHT22;21230;51.170;17.024;2022-09-24T03:22:48;7.10;99.90
35043;DHT22;21230;51.170;17.024;2022-09-24T03:25:18;7.10;99.90
35043;DHT22;21230;51.170;17.024;2022-09-24T03:27:47;7.10;99.90
35043;DHT22;21230;51.170;17.024;2022-09-24T03:30:20;7.10;99.90
35043;DHT22;21230;51.170;17.024;2022-09-24T03:33:36;7.10;99.90
35043;DHT22;21230;51.170;17.024;2022-09-24T03:36:36;7.20;99.90
35043;DHT22;21230;51.170;17.024;2022-09-24T03:39:28;7.20;99.90
35043;DHT22;21230;51.170;17.024;2022-09-24T03:41:58;7.20;99.90
35043;DHT22;21230;51.170;17.024;2022-09-24T03:44:26;7.20;99.90
35043;DHT22;21230;51.170;17.024;2022-09-24T03:47:00;7.20;99.90
35043;DHT22;21230;51.170;17.024;2022-09-24T03:49:32;7.20;99.90
35043;DHT22;21230;51.170;17.024;2022-09-24T03:52:14;7.20;99.90
35043;DHT22;21230;51.170;17.024;2022-09-24T03:54:49;7.30;99.90
35043;DHT22;21230;51.170;17.024;2022-09-24T03:58:17;7.30;99.90
35043;DHT22;21230;51.170;17.024;2022-09-24T04:01:09;7.40;99.90
35043;DHT22;21230;51.170;17.024;2022-09-24T04:03:51;7.30;99.90
35043;DHT22;21230;51.170;17.024;2022-09-24T04:06:37;7.30;99.90
35043;DHT22;21230;51.170;17.024;2022-09-24T04:09:05;7.30;99.90
35043;DHT22;21230;51.170;17.024;2022-09-24T04:11:41;7.30;99.90
35043;DHT22;21230;51.170;17.024;2022-09-24T04:17:52;7.30;99.90
35043;DHT22;21230;51.170;17.024;2022-09-24T04:21:12;7.30;99.90
35043;DHT22;21230;51.170;17.024;2022-09-24T04:32:05;7.40;99.90
35043;DHT22;21230;51.170;17.024;2022-09-24T04:34:36;7.40;99.90
35043;DHT22;21230;51.170;17.024;2022-09-24T04:37:05;7.40;99.90
35043;DHT22;21230;51.170;17.024;2022-09-24T04:39:43;7.40;99.90
35043;DHT22;21230;51.170;17.024;2022-09-24T04:42:16;7.40;99.90
35043;DHT22;21230;51.170;17.024;2022-09-24T04:48:10;7.40;99.90
35043;DHT22;21230;51.170;17.024;2022-09-24T04:53:58;7.40;99.90
35043;DHT22;21230;51.170;17.024;2022-09-24T04:56:30;7.40;99.90
35043;DHT22;21230;51.170;17.024;2022-09-24T04:58:56;7.40;99.90
35043;DHT22;21230;51.170;17.024;2022-09-24T05:04:25;7.40;99.90
35043;DHT22;21230;51.170;17.024;2022-09-24T05:06:58;7.40;99.90
35043;DHT22;21230;51.170;17.024;2022-09-24T05:09:24;7.40;99.90
35043;DHT22;21230;51.170;17.024;2022-09-24T05:11:50;7.40;99.90
35043;DHT22;21230;51.170;17.024;2022-09-24T05:14:16;7.40;99.90
35043;DHT22;21230;51.170;17.024;2022-09-24T05:16:42;7.50;99.90
35043;DHT22;21230;51.170;17.024;2022-09-24T05:19:08;7.40;99.90
35043;DHT22;21230;51.170;17.024;2022-09-24T05:24:44;7.50;99.90
35043;DHT22;21230;51.170;17.024;2022-09-24T05:27:19;7.50;99.90
35043;DHT22;21230;51.170;17.024;2022-09-24T05:29:55;7.50;99.90
35043;DHT22;21230;51.170;17.024;2022-09-24T05:32:40;7.60;99.90
35043;DHT22;21230;51.170;17.024;2022-09-24T05:35:09;7.60;99.90
35043;DHT22;21230;51.170;17.024;2022-09-24T05:37:48;7.60;99.90
35043;DHT22;21230;51.170;17.024;2022-09-24T05:43:28;7.60;99.90
35043;DHT22;21230;51.170;17.024;2022-09-24T05:46:08;7.60;99.90
35043;DHT22;21230;51.170;17.024;2022-09-24T05:48:36;7.60;99.90
35043;DHT22;21230;51.170;17.024;2022-09-24T05:51:05;7.70;99.90
35043;DHT22;21230;51.170;17.024;2022-09-24T05:53:42;7.70;99.90
35043;DHT22;21230;51.170;17.024;2022-09-24T05:56:13;7.80;99.90
35043;DHT22;21230;51.170;17.024;2022-09-24T05:58:50;7.80;99.90
35043;DHT22;21230;51.170;17.024;2022-09-24T06:01:19;7.90;99.90
35043;DHT22;21230;51.170;17.024;2022-09-24T06:06:30;7.90;99.90
35043;DHT22;21230;51.170;17.024;2022-09-24T06:08:59;8.00;99.90
35043;DHT22;21230;51.170;17.024;2022-09-24T06:25:25;8.40;99.90
35043;DHT22;21230;51.170;17.024;2022-09-24T06:28:22;8.40;99.90
35043;DHT22;21230;51.170;17.024;2022-09-24T06:33:34;8.50;99.90
35043;DHT22;21230;51.170;17.024;2022-09-24T06:49:37;8.90;99.90
35043;DHT22;21230;51.170;17.024;2022-09-24T06:52:31;9.00;99.90
35043;DHT22;21230;51.170;17.024;2022-09-24T06:55:08;9.10;99.90
35043;DHT22;21230;51.170;17.024;2022-09-24T07:03:48;9.40;99.90
35043;DHT22;21230;51.170;17.024;2022-09-24T07:06:36;9.50;99.90
35043;DHT22;21230;51.170;17.024;2022-09-24T07:09:26;9.70;99.90
35043;DHT22;21230;51.170;17.024;2022-09-24T07:12:00;9.90;99.90
35043;DHT22;21230;51.170;17.024;2022-09-24T07:14:30;10.10;99.90
35043;DHT22;21230;51.170;17.024;2022-09-24T07:17:20;10.10;99.90
35043;DHT22;21230;51.170;17.024;2022-09-24T07:28:01;10.50;99.90
35043;DHT22;21230;51.170;17.024;2022-09-24T07:31:00;10.70;99.90
35043;DHT22;21230;51.170;17.024;2022-09-24T07:37:03;10.90;99.90
35043;DHT22;21230;51.170;17.024;2022-09-24T07:47:37;11.10;99.90
35043;DHT22;21230;51.170;17.024;2022-09-24T09:00:58;13.50;99.90
35043;DHT22;21230;51.170;17.024;2022-09-24T09:03:36;13.60;99.90
35043;DHT22;21230;51.170;17.024;2022-09-24T09:11:29;14.00;99.90
35043;DHT22;21230;51.170;17.024;2022-09-24T09:14:10;14.10;99.90
35043;DHT22;21230;51.170;17.024;2022-09-24T09:16:57;14.20;99.90
35043;DHT22;21230;51.170;17.024;2022-09-24T09:19:25;14.40;99.90
35043;DHT22;21230;51.170;17.024;2022-09-24T09:21:58;14.50;99.90
35043;DHT22;21230;51.170;17.024;2022-09-24T09:24:50;14.80;99.90
35043;DHT22;21230;51.170;17.024;2022-09-24T09:27:15;14.90;99.90
35043;DHT22;21230;51.170;17.024;2022-09-24T09:29:41;15.00;99.90
35043;DHT22;21230;51.170;17.024;2022-09-24T09:42:43;15.30;99.90
35043;DHT22;21230;51.170;17.024;2022-09-24T09:47:45;15.20;99.90
35043;DHT22;21230;51.170;17.024;2022-09-24T09:52:56;15.40;99.90
35043;DHT22;21230;51.170;17.024;2022-09-24T09:55:32;15.40;99.90
35043;DHT22;21230;51.170;17.024;2022-09-24T09:58:18;15.40;99.90
35043;DHT22;21230;51.170;17.024;2022-09-24T10:00:48;15.30;99.90
35043;DHT22;21230;51.170;17.024;2022-09-24T10:03:27;15.40;99.90
35043;DHT22;21230;51.170;17.024;2022-09-24T10:05:55;15.50;99.90
35043;DHT22;21230;51.170;17.024;2022-09-24T10:08:22;15.40;99.90
35043;DHT22;21230;51.170;17.024;2022-09-24T10:10:52;15.40;99.90
35043;DHT22;21230;51.170;17.024;2022-09-24T10:13:21;15.30;99.90
35043;DHT22;21230;51.170;17.024;2022-09-24T10:15:56;15.40;99.90
35043;DHT22;21230;51.170;17.024;2022-09-24T10:18:26;15.40;99.90
35043;DHT22;21230;51.170;17.024;2022-09-24T10:20:53;15.50;99.90
35043;DHT22;21230;51.170;17.024;2022-09-24T10:23:25;15.70;99.90
35043;DHT22;21230;51.170;17.024;2022-09-24T10:25:58;15.90;99.90
35043;DHT22;21230;51.170;17.024;2022-09-24T10:28:25;16.00;99.90
35043;DHT22;21230;51.170;17.024;2022-09-24T10:31:19;16.20;99.90
35043;DHT22;21230;51.170;17.024;2022-09-24T10:33:47;16.30;99.90
35043;DHT22;21230;51.170;17.024;2022-09-24T10:36:20;16.30;99.90
35043;DHT22;21230;51.170;17.024;2022-09-24T10:38:47;16.40;99.90
35043;DHT22;21230;51.170;17.024;2022-09-24T10:41:34;16.60;99.90
35043;DHT22;21230;51.170;17.024;2022-09-24T10:44:02;16.80;97.50
35043;DHT22;21230;51.170;17.024;2022-09-24T10:52:03;16.90;95.60
35043;DHT22;21230;51.170;17.024;2022-09-24T10:57:27;16.60;93.70
35043;DHT22;21230;51.170;17.024;2022-09-24T11:05:11;17.10;96.10
35043;DHT22;21230;51.170;17.024;2022-09-24T11:10:28;17.30;93.20
35043;DHT22;21230;51.170;17.024;2022-09-24T11:18:07;17.40;87.10
35043;DHT22;21230;51.170;17.024;2022-09-24T11:20:43;17.50;86.70
35043;DHT22;21230;51.170;17.024;2022-09-24T11:28:57;17.50;88.00
35043;DHT22;21230;51.170;17.024;2022-09-24T11:37:06;17.80;82.30
35043;DHT22;21230;51.170;17.024;2022-09-24T11:45:26;17.90;79.70
35043;DHT22;21230;51.170;17.024;2022-09-24T11:48:07;17.90;76.30
35043;DHT22;21230;51.170;17.024;2022-09-24T11:50:40;17.90;72.70
35043;DHT22;21230;51.170;17.024;2022-09-24T11:56:17;18.00;79.00
35043;DHT22;21230;51.170;17.024;2022-09-24T11:58:52;18.00;79.60
35043;DHT22;21230;51.170;17.024;2022-09-24T12:01:27;18.00;77.60
35043;DHT22;21230;51.170;17.024;2022-09-24T12:03:59;17.90;75.10
35043;DHT22;21230;51.170;17.024;2022-09-24T12:06:30;17.80;74.00
35043;DHT22;21230;51.170;17.024;2022-09-24T12:11:49;17.50;67.80
35043;DHT22;21230;51.170;17.024;2022-09-24T12:14:23;17.50;73.80
35043;DHT22;21230;51.170;17.024;2022-09-24T12:16:54;17.60;79.60
35043;DHT22;21230;51.170;17.024;2022-09-24T12:22:10;17.60;75.50
35043;DHT22;21230;51.170;17.024;2022-09-24T12:24:42;17.70;78.20
35043;DHT22;21230;51.170;17.024;2022-09-24T12:27:10;17.80;73.40
35043;DHT22;21230;51.170;17.024;2022-09-24T12:29:43;17.60;67.60
35043;DHT22;21230;51.170;17.024;2022-09-24T12:32:45;17.70;72.00
35043;DHT22;21230;51.170;17.024;2022-09-24T12:46:24;17.80;64.40
35043;DHT22;21230;51.170;17.024;2022-09-24T12:48:51;17.90;64.20
35043;DHT22;21230;51.170;17.024;2022-09-24T12:51:18;18.00;68.80
35043;DHT22;21230;51.170;17.024;2022-09-24T12:53:58;17.80;56.30
35043;DHT22;21230;51.170;17.024;2022-09-24T12:56:25;17.70;57.20
35043;DHT22;21230;51.170;17.024;2022-09-24T12:58:54;17.60;58.80
35043;DHT22;21230;51.170;17.024;2022-09-24T13:06:31;17.80;64.40
35043;DHT22;21230;51.170;17.024;2022-09-24T13:08:59;17.90;63.70
35043;DHT22;21230;51.170;17.024;2022-09-24T13:11:34;17.90;63.90
35043;DHT22;21230;51.170;17.024;2022-09-24T13:14:23;17.80;61.60
35043;DHT22;21230;51.170;17.024;2022-09-24T13:16:52;17.80;65.80
35043;DHT22;21230;51.170;17.024;2022-09-24T13:19:54;17.70;56.30
35043;DHT22;21230;51.170;17.024;2022-09-24T13:22:30;17.70;55.30
35043;DHT22;21230;51.170;17.024;2022-09-24T13:27:39;17.80;57.70
35043;DHT22;21230;51.170;17.024;2022-09-24T13:32:33;17.60;56.90
35043;DHT22;21230;51.170;17.024;2022-09-24T13:35:06;17.60;60.70
35043;DHT22;21230;51.170;17.024;2022-09-24T13:37:34;17.70;60.00
35043;DHT22;21230;51.170;17.024;2022-09-24T13:40:04;17.70;57.20
35043;DHT22;21230;51.170;17.024;2022-09-24T13:42:34;17.50;57.00
35043;DHT22;21230;51.170;17.024;2022-09-24T13:45:03;17.60;56.00
35043;DHT22;21230;51.170;17.024;2022-09-24T13:52:33;17.50;56.20
35043;DHT22;21230;51.170;17.024;2022-09-24T13:55:10;17.50;55.70
35043;DHT22;21230;51.170;17.024;2022-09-24T13:57:45;17.40;54.00
35043;DHT22;21230;51.170;17.024;2022-09-24T14:02:51;17.70;59.90
35043;DHT22;21230;51.170;17.024;2022-09-24T14:05:17;17.70;55.60
35043;DHT22;21230;51.170;17.024;2022-09-24T14:07:51;17.80;57.30
35043;DHT22;21230;51.170;17.024;2022-09-24T14:10:19;17.60;55.80
35043;DHT22;21230;51.170;17.024;2022-09-24T14:12:44;17.70;57.10
35043;DHT22;21230;51.170;17.024;2022-09-24T14:15:15;17.50;57.20
35043;DHT22;21230;51.170;17.024;2022-09-24T14:17:41;17.50;57.30
35043;DHT22;21230;51.170;17.024;2022-09-24T14:20:11;17.40;59.00
35043;DHT22;21230;51.170;17.024;2022-09-24T14:22:41;17.40;59.90
35043;DHT22;21230;51.170;17.024;2022-09-24T14:25:11;17.30;60.40
35043;DHT22;21230;51.170;17.024;2022-09-24T14:27:40;17.20;59.20
35043;DHT22;21230;51.170;17.024;2022-09-24T14:30:14;17.10;61.20
35043;DHT22;21230;51.170;17.024;2022-09-24T14:32:41;17.00;59.80
35043;DHT22;21230;51.170;17.024;2022-09-24T14:35:18;16.80;63.60
35043;DHT22;21230;51.170;17.024;2022-09-24T14:37:49;16.70;63.90
35043;DHT22;21230;51.170;17.024;2022-09-24T14:40:16;16.70;64.30
35043;DHT22;21230;51.170;17.024;2022-09-24T14:42:47;16.70;62.60
35043;DHT22;21230;51.170;17.024;2022-09-24T14:48:27;16.60;60.70
35043;DHT22;21230;51.170;17.024;2022-09-24T14:50:53;16.60;60.00
35043;DHT22;21230;51.170;17.024;2022-09-24T14:55:45;16.70;71.00
35043;DHT22;21230;51.170;17.024;2022-09-24T15:01:13;16.60;84.70
35043;DHT22;21230;51.170;17.024;2022-09-24T15:04:22;16.60;75.10
35043;DHT22;21230;51.170;17.024;2022-09-24T15:06:31;16.60;66.30
35043;DHT22;21230;51.170;17.024;2022-09-24T15:09:24;16.50;70.60
35043;DHT22;21230;51.170;17.024;2022-09-24T15:11:52;16.50;72.30
35043;DHT22;21230;51.170;17.024;2022-09-24T15:14:20;16.50;74.50
35043;DHT22;21230;51.170;17.024;2022-09-24T15:16:52;16.50;80.40
35043;DHT22;21230;51.170;17.024;2022-09-24T15:19:20;16.40;81.40
35043;DHT22;21230;51.170;17.024;2022-09-24T15:21:49;16.30;82.60
35043;DHT22;21230;51.170;17.024;2022-09-24T15:24:16;16.30;91.80
35043;DHT22;21230;51.170;17.024;2022-09-24T15:26:44;16.30;96.70
35043;DHT22;21230;51.170;17.024;2022-09-24T15:29:19;16.40;95.10
35043;DHT22;21230;51.170;17.024;2022-09-24T15:31:48;16.50;87.30
35043;DHT22;21230;51.170;17.024;2022-09-24T15:34:17;16.60;85.50
35043;DHT22;21230;51.170;17.024;2022-09-24T15:36:45;16.70;84.20
35043;DHT22;21230;51.170;17.024;2022-09-24T15:39:11;16.80;83.50
35043;DHT22;21230;51.170;17.024;2022-09-24T15:41:37;16.80;77.20
35043;DHT22;21230;51.170;17.024;2022-09-24T15:44:04;16.90;79.90
35043;DHT22;21230;51.170;17.024;2022-09-24T15:46:29;16.90;77.20
35043;DHT22;21230;51.170;17.024;2022-09-24T15:48:56;16.90;78.10
35043;DHT22;21230;51.170;17.024;2022-09-24T15:51:23;16.90;78.00
35043;DHT22;21230;51.170;17.024;2022-09-24T15:53:49;16.80;77.90
35043;DHT22;21230;51.170;17.024;2022-09-24T15:56:18;16.70;76.10
35043;DHT22;21230;51.170;17.024;2022-09-24T15:58:44;16.70;77.00
35043;DHT22;21230;51.170;17.024;2022-09-24T16:01:16;16.60;78.10
35043;DHT22;21230;51.170;17.024;2022-09-24T16:03:46;16.60;80.00
35043;DHT22;21230;51.170;17.024;2022-09-24T16:06:12;16.50;82.90
35043;DHT22;21230;51.170;17.024;2022-09-24T16:08:38;16.50;84.80
35043;DHT22;21230;51.170;17.024;2022-09-24T16:11:04;16.40;85.00
35043;DHT22;21230;51.170;17.024;2022-09-24T16:13:34;16.30;86.80
35043;DHT22;21230;51.170;17.024;2022-09-24T16:16:04;16.20;89.70
35043;DHT22;21230;51.170;17.024;2022-09-24T16:18:30;16.10;94.20
35043;DHT22;21230;51.170;17.024;2022-09-24T16:20:56;15.90;99.10
35043;DHT22;21230;51.170;17.024;2022-09-24T16:23:23;15.80;98.70
35043;DHT22;21230;51.170;17.024;2022-09-24T16:25:56;15.70;97.20
35043;DHT22;21230;51.170;17.024;2022-09-24T16:28:23;15.70;97.20
35043;DHT22;21230;51.170;17.024;2022-09-24T16:30:49;15.60;96.30
35043;DHT22;21230;51.170;17.024;2022-09-24T16:33:15;15.60;96.80
35043;DHT22;21230;51.170;17.024;2022-09-24T16:35:41;15.60;98.00
35043;DHT22;21230;51.170;17.024;2022-09-24T16:38:06;15.50;99.10
35043;DHT22;21230;51.170;17.024;2022-09-24T16:40:32;15.50;99.10
35043;DHT22;21230;51.170;17.024;2022-09-24T16:42:57;15.50;99.50
35043;DHT22;21230;51.170;17.024;2022-09-24T16:45:23;15.50;99.90
35043;DHT22;21230;51.170;17.024;2022-09-24T16:47:50;15.40;99.90
35043;DHT22;21230;51.170;17.024;2022-09-24T16:50:16;15.30;99.90
35043;DHT22;21230;51.170;17.024;2022-09-24T16:52:41;15.30;99.90
35043;DHT22;21230;51.170;17.024;2022-09-24T16:55:09;15.20;99.90
35043;DHT22;21230;51.170;17.024;2022-09-24T16:57:35;15.10;99.90
35043;DHT22;21230;51.170;17.024;2022-09-24T17:00:02;15.10;99.90
35043;DHT22;21230;51.170;17.024;2022-09-24T17:02:29;15.00;99.90
35043;DHT22;21230;51.170;17.024;2022-09-24T17:04:55;14.90;99.90
35043;DHT22;21230;51.170;17.024;2022-09-24T17:07:21;14.90;99.90
35043;DHT22;21230;51.170;17.024;2022-09-24T17:09:46;14.80;99.90
35043;DHT22;21230;51.170;17.024;2022-09-24T17:12:30;14.70;99.90
35043;DHT22;21230;51.170;17.024;2022-09-24T17:14:57;14.70;99.90
35043;DHT22;21230;51.170;17.024;2022-09-24T17:17:22;14.60;99.90
35043;DHT22;21230;51.170;17.024;2022-09-24T17:19:49;14.50;99.90
35043;DHT22;21230;51.170;17.024;2022-09-24T17:22:14;14.40;99.90
35043;DHT22;21230;51.170;17.024;2022-09-24T17:24:40;14.40;99.90
35043;DHT22;21230;51.170;17.024;2022-09-24T17:27:06;14.30;99.90
35043;DHT22;21230;51.170;17.024;2022-09-24T17:29:32;14.30;99.90
35043;DHT22;21230;51.170;17.024;2022-09-24T17:31:57;14.20;99.90
35043;DHT22;21230;51.170;17.024;2022-09-24T17:34:24;14.10;99.90
35043;DHT22;21230;51.170;17.024;2022-09-24T17:36:50;14.00;99.90
35043;DHT22;21230;51.170;17.024;2022-09-24T17:39:16;13.90;99.90
35043;DHT22;21230;51.170;17.024;2022-09-24T17:41:42;13.80;99.90
35043;DHT22;21230;51.170;17.024;2022-09-24T17:44:09;13.70;99.90
35043;DHT22;21230;51.170;17.024;2022-09-24T17:46:36;13.70;99.90
35043;DHT22;21230;51.170;17.024;2022-09-24T17:49:02;13.60;99.90
35043;DHT22;21230;51.170;17.024;2022-09-24T17:51:29;13.50;99.90
35043;DHT22;21230;51.170;17.024;2022-09-24T17:53:59;13.40;99.90
35043;DHT22;21230;51.170;17.024;2022-09-24T17:56:26;13.30;99.90
35043;DHT22;21230;51.170;17.024;2022-09-24T17:58:53;13.10;99.90
35043;DHT22;21230;51.170;17.024;2022-09-24T18:06:42;12.90;99.90
35043;DHT22;21230;51.170;17.024;2022-09-24T18:09:09;12.90;99.90
35043;DHT22;21230;51.170;17.024;2022-09-24T18:11:40;12.80;99.90
35043;DHT22;21230;51.170;17.024;2022-09-24T18:14:09;12.80;99.90
35043;DHT22;21230;51.170;17.024;2022-09-24T18:16:37;12.70;99.90
35043;DHT22;21230;51.170;17.024;2022-09-24T18:19:11;12.60;99.90
35043;DHT22;21230;51.170;17.024;2022-09-24T18:21:45;12.50;99.90
35043;DHT22;21230;51.170;17.024;2022-09-24T18:24:16;12.30;99.90
35043;DHT22;21230;51.170;17.024;2022-09-24T18:26:43;12.20;99.90
35043;DHT22;21230;51.170;17.024;2022-09-24T18:29:13;12.10;99.90
35043;DHT22;21230;51.170;17.024;2022-09-24T18:31:40;12.00;99.90
35043;DHT22;21230;51.170;17.024;2022-09-24T18:34:07;11.90;99.90
35043;DHT22;21230;51.170;17.024;2022-09-24T18:36:36;11.80;99.90
35043;DHT22;21230;51.170;17.024;2022-09-24T18:39:12;11.70;99.90
35043;DHT22;21230;51.170;17.024;2022-09-24T18:41:40;11.60;99.90
35043;DHT22;21230;51.170;17.024;2022-09-24T18:44:13;11.60;99.90
35043;DHT22;21230;51.170;17.024;2022-09-24T18:46:41;11.50;99.90
35043;DHT22;21230;51.170;17.024;2022-09-24T18:49:14;11.50;99.90
35043;DHT22;21230;51.170;17.024;2022-09-24T18:54:39;11.40;99.90
35043;DHT22;21230;51.170;17.024;2022-09-24T18:57:06;11.30;99.90
35043;DHT22;21230;51.170;17.024;2022-09-24T18:59:32;11.20;99.90
35043;DHT22;21230;51.170;17.024;2022-09-24T19:02:11;11.10;99.90
35043;DHT22;21230;51.170;17.024;2022-09-24T19:04:40;11.10;99.90
35043;DHT22;21230;51.170;17.024;2022-09-24T19:07:07;11.00;99.90
35043;DHT22;21230;51.170;17.024;2022-09-24T19:09:36;11.00;99.90
35043;DHT22;21230;51.170;17.024;2022-09-24T19:12:08;10.90;99.90
35043;DHT22;21230;51.170;17.024;2022-09-24T19:14:39;10.90;99.90
35043;DHT22;21230;51.170;17.024;2022-09-24T19:17:10;10.80;99.90
35043;DHT22;21230;51.170;17.024;2022-09-24T19:19:36;10.80;99.90
35043;DHT22;21230;51.170;17.024;2022-09-24T19:22:02;10.80;99.90
35043;DHT22;21230;51.170;17.024;2022-09-24T19:24:30;10.70;99.90
35043;DHT22;21230;51.170;17.024;2022-09-24T19:26:57;10.80;99.90
35043;DHT22;21230;51.170;17.024;2022-09-24T19:29:24;10.70;99.90
35043;DHT22;21230;51.170;17.024;2022-09-24T19:31:51;10.70;99.90
35043;DHT22;21230;51.170;17.024;2022-09-24T19:34:17;10.70;99.90
35043;DHT22;21230;51.170;17.024;2022-09-24T19:36:45;10.60;99.90
35043;DHT22;21230;51.170;17.024;2022-09-24T19:39:15;10.60;99.90
35043;DHT22;21230;51.170;17.024;2022-09-24T19:41:42;10.60;99.90
35043;DHT22;21230;51.170;17.024;2022-09-24T19:44:08;10.50;99.90
35043;DHT22;21230;51.170;17.024;2022-09-24T19:46:35;10.40;99.90
35043;DHT22;21230;51.170;17.024;2022-09-24T19:49:02;10.30;99.90
35043;DHT22;21230;51.170;17.024;2022-09-24T19:51:30;10.30;99.90
35043;DHT22;21230;51.170;17.024;2022-09-24T19:53:58;10.30;99.90
35043;DHT22;21230;51.170;17.024;2022-09-24T19:56:25;10.20;99.90
35043;DHT22;21230;51.170;17.024;2022-09-24T19:58:55;10.10;99.90
35043;DHT22;21230;51.170;17.024;2022-09-24T20:01:26;10.10;99.90
35043;DHT22;21230;51.170;17.024;2022-09-24T20:03:52;10.00;99.90
35043;DHT22;21230;51.170;17.024;2022-09-24T20:06:20;10.00;99.90
35043;DHT22;21230;51.170;17.024;2022-09-24T20:08:51;10.00;99.90
35043;DHT22;21230;51.170;17.024;2022-09-24T20:11:20;10.10;99.90
35043;DHT22;21230;51.170;17.024;2022-09-24T20:13:48;10.10;99.90
35043;DHT22;21230;51.170;17.024;2022-09-24T20:16:25;10.10;99.90
35043;DHT22;21230;51.170;17.024;2022-09-24T20:19:00;10.10;99.90
35043;DHT22;21230;51.170;17.024;2022-09-24T20:21:29;10.00;99.90
35043;DHT22;21230;51.170;17.024;2022-09-24T20:23:57;10.00;99.90
35043;DHT22;21230;51.170;17.024;2022-09-24T20:26:24;10.00;99.90
35043;DHT22;21230;51.170;17.024;2022-09-24T20:29:09;10.00;99.90
35043;DHT22;21230;51.170;17.024;2022-09-24T20:31:41;9.90;99.90
35043;DHT22;21230;51.170;17.024;2022-09-24T20:34:25;9.90;99.90
35043;DHT22;21230;51.170;17.024;2022-09-24T20:36:54;9.80;99.90
35043;DHT22;21230;51.170;17.024;2022-09-24T20:39:23;9.60;99.90
35043;DHT22;21230;51.170;17.024;2022-09-24T20:41:54;9.50;99.90
35043;DHT22;21230;51.170;17.024;2022-09-24T20:44:20;9.50;99.90
35043;DHT22;21230;51.170;17.024;2022-09-24T20:46:51;9.40;99.90
35043;DHT22;21230;51.170;17.024;2022-09-24T20:49:20;9.50;99.90
35043;DHT22;21230;51.170;17.024;2022-09-24T20:51:50;9.50;99.90
35043;DHT22;21230;51.170;17.024;2022-09-24T20:54:18;9.50;99.90
35043;DHT22;21230;51.170;17.024;2022-09-24T20:56:44;9.40;99.90
35043;DHT22;21230;51.170;17.024;2022-09-24T20:59:11;9.40;99.90
35043;DHT22;21230;51.170;17.024;2022-09-24T21:01:37;9.40;99.90
35043;DHT22;21230;51.170;17.024;2022-09-24T21:04:04;9.40;99.90
35043;DHT22;21230;51.170;17.024;2022-09-24T21:06:30;9.30;99.90
35043;DHT22;21230;51.170;17.024;2022-09-24T21:08:57;9.30;99.90
35043;DHT22;21230;51.170;17.024;2022-09-24T21:11:25;9.30;99.90
35043;DHT22;21230;51.170;17.024;2022-09-24T21:13:56;9.30;99.90
35043;DHT22;21230;51.170;17.024;2022-09-24T21:16:31;9.20;99.90
35043;DHT22;21230;51.170;17.024;2022-09-24T21:18:58;9.20;99.90
35043;DHT22;21230;51.170;17.024;2022-09-24T21:21:30;9.10;99.90
35043;DHT22;21230;51.170;17.024;2022-09-24T21:24:00;9.00;99.90
35043;DHT22;21230;51.170;17.024;2022-09-24T21:26:31;9.00;99.90
35043;DHT22;21230;51.170;17.024;2022-09-24T21:28:59;9.00;99.90
35043;DHT22;21230;51.170;17.024;2022-09-24T21:31:28;9.00;99.90